createdAt,value
2017-06-14T00:00:43.726Z,4.63
2017-06-14T00:03:10.060Z,5.20
2017-06-14T00:05:36.431Z,4.80
2017-06-14T00:08:02.791Z,5.50
2017-06-14T00:10:29.134Z,5.60
2017-06-14T00:12:55.486Z,6.90
2017-06-14T00:15:21.918Z,5.17
2017-06-14T00:17:48.254Z,6.07
2017-06-14T00:20:14.630Z,6.17
2017-06-14T00:22:41.138Z,6.67
2017-06-14T00:25:07.490Z,6.90
2017-06-14T00:27:33.817Z,5.87
2017-06-14T00:30:00.238Z,6.27
2017-06-14T00:32:26.594Z,5.87
2017-06-14T00:34:52.914Z,5.50
2017-06-14T00:37:19.246Z,6.27
2017-06-14T00:39:45.610Z,6.03
2017-06-14T00:42:11.932Z,6.70
2017-06-14T00:44:38.249Z,4.87
2017-06-14T00:47:04.602Z,5.53
2017-06-14T00:49:30.938Z,5.97
2017-06-14T00:51:57.303Z,5.90
2017-06-14T00:54:23.643Z,5.30
2017-06-14T00:56:49.994Z,5.20
2017-06-14T00:59:16.343Z,5.67
2017-06-14T01:01:42.790Z,5.50
2017-06-14T01:04:09.140Z,6.43
2017-06-14T01:06:35.487Z,5.40
2017-06-14T01:09:01.838Z,6.30
2017-06-14T01:11:28.279Z,6.20
2017-06-14T01:13:54.660Z,5.70
2017-06-14T01:16:21.013Z,5.77
2017-06-14T01:18:47.369Z,5.07
2017-06-14T01:21:13.728Z,4.77
2017-06-14T01:23:40.072Z,5.87
2017-06-14T01:26:06.425Z,5.07
2017-06-14T01:28:32.747Z,5.27
2017-06-14T01:30:59.191Z,5.50
2017-06-14T01:33:25.539Z,6.07
2017-06-14T01:35:51.893Z,5.80
2017-06-14T01:38:18.268Z,5.60
2017-06-14T01:40:44.671Z,6.60
2017-06-14T01:43:11.002Z,6.93
2017-06-14T01:45:37.406Z,7.57
2017-06-14T01:48:03.796Z,6.33
2017-06-14T01:50:30.179Z,7.00
2017-06-14T01:52:56.505Z,6.50
2017-06-14T01:55:22.849Z,6.20
2017-06-14T01:57:49.207Z,6.70
2017-06-14T02:00:15.548Z,6.10
2017-06-14T02:02:41.904Z,5.50
2017-06-14T02:05:08.257Z,6.17
2017-06-14T02:07:34.647Z,6.30
2017-06-14T02:10:00.993Z,6.80
2017-06-14T02:12:27.319Z,6.40
2017-06-14T02:14:53.667Z,6.23
2017-06-14T02:17:20.025Z,5.67
2017-06-14T02:19:46.345Z,6.30
2017-06-14T02:22:12.683Z,6.13
2017-06-14T02:24:39.032Z,5.33
2017-06-14T02:27:06.618Z,6.10
2017-06-14T02:29:32.934Z,5.57
2017-06-14T02:31:59.263Z,5.80
2017-06-14T02:34:25.635Z,5.30
2017-06-14T02:36:51.946Z,5.90
2017-06-14T02:39:18.315Z,6.40
2017-06-14T02:41:44.679Z,6.40
2017-06-14T02:44:11.047Z,7.10
2017-06-14T02:46:37.369Z,6.67
2017-06-14T02:49:04.034Z,6.80
2017-06-14T02:51:30.363Z,6.50
2017-06-14T02:53:56.714Z,6.50
2017-06-14T02:56:23.060Z,6.80
2017-06-14T02:58:49.405Z,7.67
2017-06-14T03:01:15.755Z,7.20
2017-06-14T03:03:42.065Z,7.40
2017-06-14T03:06:08.461Z,6.90
2017-06-14T03:08:34.775Z,7.13
2017-06-14T03:11:01.114Z,7.10
2017-06-14T03:13:27.450Z,6.93
2017-06-14T03:15:53.783Z,6.33
2017-06-14T03:18:20.158Z,6.90
2017-06-14T03:20:52.481Z,5.80
2017-06-14T03:23:18.840Z,6.50
2017-06-14T03:25:45.198Z,7.43
2017-06-14T03:28:11.514Z,7.57
2017-06-14T03:30:37.838Z,7.53
2017-06-14T03:33:04.158Z,8.17
2017-06-14T03:35:30.497Z,7.60
2017-06-14T03:37:56.896Z,8.10
2017-06-14T03:40:23.221Z,7.60
2017-06-14T03:42:49.577Z,6.77
2017-06-14T03:45:15.917Z,8.70
2017-06-14T03:47:42.319Z,8.43
2017-06-14T03:50:08.644Z,8.27
2017-06-14T03:52:34.985Z,7.50
2017-06-14T03:55:01.317Z,7.73
2017-06-14T03:57:27.696Z,8.20
2017-06-14T03:59:54.018Z,7.67
2017-06-14T04:02:20.333Z,8.70
2017-06-14T04:04:46.687Z,7.60
2017-06-14T04:07:13.072Z,8.10
2017-06-14T04:09:39.475Z,7.00
2017-06-14T04:12:05.836Z,7.80
2017-06-14T04:14:32.163Z,6.93
2017-06-14T04:16:58.593Z,9.07
2017-06-14T04:19:24.910Z,9.10
2017-06-14T04:21:51.248Z,7.63
2017-06-14T04:24:17.611Z,8.50
2017-06-14T04:26:43.994Z,8.60
2017-06-14T04:29:10.342Z,8.63
2017-06-14T04:31:36.707Z,8.20
2017-06-14T04:34:03.060Z,7.60
2017-06-14T04:36:29.405Z,7.20
2017-06-14T04:38:55.726Z,7.23
2017-06-14T04:41:22.072Z,8.47
2017-06-14T04:43:48.385Z,8.63
2017-06-14T04:46:14.755Z,7.73
2017-06-14T04:48:41.102Z,9.93
2017-06-14T04:51:07.521Z,9.37
2017-06-14T04:53:33.941Z,9.10
2017-06-14T04:56:01.148Z,10.20
2017-06-14T04:58:27.479Z,10.10
2017-06-14T05:00:53.822Z,10.40
2017-06-14T05:03:20.189Z,9.93
2017-06-14T05:05:46.557Z,11.43
2017-06-14T05:08:17.672Z,10.60
2017-06-14T05:10:44.017Z,10.37
2017-06-14T05:13:11.165Z,11.13
2017-06-14T05:15:37.517Z,10.70
2017-06-14T05:18:03.862Z,10.77
2017-06-14T05:20:30.323Z,10.70
2017-06-14T05:22:56.642Z,11.90
2017-06-14T05:25:22.977Z,12.63
2017-06-14T05:27:49.329Z,10.93
2017-06-14T05:30:15.676Z,12.23
2017-06-14T05:32:42.457Z,14.77
2017-06-14T05:35:08.868Z,12.83
2017-06-14T05:37:35.214Z,14.97
2017-06-14T05:40:01.550Z,14.40
2017-06-14T05:42:27.882Z,15.43
2017-06-14T05:44:54.224Z,13.30
2017-06-14T05:47:20.559Z,15.10
2017-06-14T05:49:46.880Z,15.33
2017-06-14T05:52:13.233Z,15.10
2017-06-14T05:54:39.580Z,14.00
2017-06-14T05:57:05.926Z,13.90
2017-06-14T05:59:32.259Z,14.60
2017-06-14T06:01:58.594Z,13.80
2017-06-14T06:04:24.909Z,12.63
2017-06-14T06:06:51.256Z,13.87
2017-06-14T06:09:17.588Z,15.40
2017-06-14T06:11:43.933Z,13.00
2017-06-14T06:14:10.272Z,12.43
2017-06-14T06:16:36.606Z,12.50
2017-06-14T06:19:02.932Z,11.80
2017-06-14T06:21:29.234Z,12.40
2017-06-14T06:23:55.604Z,11.97
2017-06-14T06:26:21.927Z,10.47
2017-06-14T06:28:48.250Z,10.60
2017-06-14T06:31:14.562Z,10.47
2017-06-14T06:33:40.877Z,9.40
2017-06-14T06:36:07.239Z,8.80
2017-06-14T06:38:33.583Z,8.00
2017-06-14T06:40:59.918Z,6.83
2017-06-14T06:43:26.226Z,7.77
2017-06-14T06:45:52.634Z,6.30
2017-06-14T06:48:18.992Z,5.63
2017-06-14T06:50:45.338Z,5.40
2017-06-14T06:53:11.665Z,6.00
2017-06-14T06:55:38.015Z,5.43
2017-06-14T06:58:04.365Z,5.07
2017-06-14T07:00:30.685Z,5.10
2017-06-14T07:02:57.060Z,5.00
2017-06-14T07:05:23.414Z,5.10
2017-06-14T07:07:49.742Z,5.50
2017-06-14T07:10:16.089Z,4.43
2017-06-14T07:12:42.429Z,4.27
2017-06-14T07:15:08.750Z,5.47
2017-06-14T07:17:35.074Z,5.33
2017-06-14T07:20:01.386Z,5.17
2017-06-14T07:22:27.741Z,4.80
2017-06-14T07:24:54.112Z,4.97
2017-06-14T07:27:20.422Z,5.33
2017-06-14T07:29:46.736Z,5.07
2017-06-14T07:32:13.082Z,6.20
2017-06-14T07:34:39.431Z,6.10
2017-06-14T07:37:05.813Z,6.50
2017-06-14T07:39:32.152Z,7.60
2017-06-14T07:41:58.508Z,7.60
2017-06-14T07:44:24.854Z,6.07
2017-06-14T07:46:51.169Z,5.97
2017-06-14T07:49:17.530Z,6.13
2017-06-14T07:51:43.848Z,5.90
2017-06-14T07:54:10.178Z,5.10
2017-06-14T07:56:36.498Z,4.40
2017-06-14T07:59:02.853Z,2.60
2017-06-14T08:01:29.205Z,3.20
2017-06-14T08:03:55.548Z,4.30
2017-06-14T08:06:21.888Z,3.23
2017-06-14T08:08:48.241Z,3.67
2017-06-14T08:11:14.587Z,3.60
2017-06-14T08:13:40.923Z,3.00
2017-06-14T08:16:07.245Z,2.40
2017-06-14T08:18:34.447Z,3.13
2017-06-14T08:21:00.852Z,2.93
2017-06-14T08:23:27.177Z,1.90
2017-06-14T08:25:53.642Z,1.73
2017-06-14T08:28:19.993Z,2.10
2017-06-14T08:30:46.338Z,2.10
2017-06-14T08:33:12.703Z,1.90
2017-06-14T08:35:39.065Z,2.10
2017-06-14T08:38:05.424Z,1.80
2017-06-14T08:40:31.766Z,1.80
2017-06-14T08:42:58.105Z,1.60
2017-06-14T08:45:24.426Z,1.90
2017-06-14T08:47:50.749Z,1.80
2017-06-14T08:50:17.085Z,1.50
2017-06-14T08:52:43.394Z,1.37
2017-06-14T08:55:09.736Z,1.00
2017-06-14T08:57:36.095Z,1.27
2017-06-14T09:00:02.448Z,2.10
2017-06-14T09:02:28.798Z,1.87
2017-06-14T09:04:55.129Z,2.00
2017-06-14T09:07:21.455Z,1.70
2017-06-14T09:09:47.782Z,1.20
2017-06-14T09:12:14.118Z,1.37
2017-06-14T09:14:40.442Z,1.60
2017-06-14T09:17:06.786Z,2.13
2017-06-14T09:19:33.128Z,1.40
2017-06-14T09:21:59.472Z,1.40
2017-06-14T09:24:25.801Z,1.33
2017-06-14T09:26:52.151Z,1.60
2017-06-14T09:29:18.479Z,1.17
2017-06-14T09:31:44.969Z,1.43
2017-06-14T09:34:11.311Z,1.30
2017-06-14T09:36:37.679Z,1.43
2017-06-14T09:39:04.046Z,1.30
2017-06-14T09:41:30.499Z,1.13
2017-06-14T09:43:56.810Z,1.47
2017-06-14T09:46:23.133Z,1.50
2017-06-14T09:48:49.462Z,1.40
2017-06-14T09:51:15.799Z,1.50
2017-06-14T09:53:42.140Z,1.63
2017-06-14T09:56:08.507Z,1.87
2017-06-14T09:58:34.856Z,1.70
2017-06-14T10:01:01.190Z,2.23
2017-06-14T10:03:27.520Z,1.67
2017-06-14T10:05:53.850Z,2.03
2017-06-14T10:08:20.154Z,2.03
2017-06-14T10:10:46.485Z,2.60
2017-06-14T10:13:12.830Z,3.20
2017-06-14T10:15:39.178Z,2.73
2017-06-14T10:18:05.502Z,2.53
2017-06-14T10:20:31.846Z,3.10
2017-06-14T10:22:58.187Z,2.40
2017-06-14T10:25:24.506Z,2.70
2017-06-14T10:27:50.900Z,3.00
2017-06-14T10:30:17.238Z,2.57
2017-06-14T10:32:43.592Z,3.30
2017-06-14T10:35:09.977Z,2.53
2017-06-14T10:37:36.347Z,2.60
2017-06-14T10:40:02.719Z,2.67
2017-06-14T10:42:29.046Z,2.23
2017-06-14T10:44:55.428Z,2.30
2017-06-14T10:47:21.790Z,1.70
2017-06-14T10:49:48.129Z,1.63
2017-06-14T10:52:14.462Z,1.70
2017-06-14T10:54:40.819Z,1.73
2017-06-14T10:57:07.145Z,1.60
2017-06-14T10:59:33.497Z,1.40
2017-06-14T11:01:59.864Z,2.20
2017-06-14T11:04:26.229Z,1.53
2017-06-14T11:06:52.574Z,1.30
2017-06-14T11:09:18.940Z,1.50
2017-06-14T11:11:45.266Z,2.13
2017-06-14T11:14:11.594Z,2.07
2017-06-14T11:16:37.921Z,2.20
2017-06-14T11:19:04.235Z,1.80
2017-06-14T11:21:30.539Z,2.10
2017-06-14T11:23:56.890Z,1.60
2017-06-14T11:26:23.239Z,1.57
2017-06-14T11:28:49.613Z,1.77
2017-06-14T11:31:15.986Z,1.83
2017-06-14T11:33:42.303Z,1.50
2017-06-14T11:36:08.659Z,1.50
2017-06-14T11:38:35.000Z,2.13
2017-06-14T11:41:01.327Z,1.60
2017-06-14T11:43:27.693Z,1.70
2017-06-14T11:45:54.015Z,1.43
2017-06-14T11:48:20.369Z,1.50
2017-06-14T11:50:46.726Z,1.80
2017-06-14T11:53:13.060Z,1.10
2017-06-14T11:55:39.446Z,1.10
2017-06-14T11:58:05.790Z,1.80
2017-06-14T12:00:32.157Z,1.40
2017-06-14T12:02:58.520Z,1.33
2017-06-14T12:05:24.844Z,1.50
2017-06-14T12:07:51.192Z,1.83
2017-06-14T12:10:17.533Z,1.60
2017-06-14T12:12:43.993Z,1.00
2017-06-14T12:15:10.358Z,1.50
2017-06-14T12:17:36.709Z,1.30
2017-06-14T12:20:03.088Z,1.23
2017-06-14T12:22:29.454Z,1.23
2017-06-14T12:24:55.799Z,1.20
2017-06-14T12:27:22.174Z,1.60
2017-06-14T12:29:48.529Z,1.30
2017-06-14T12:32:14.879Z,1.97
2017-06-14T12:34:41.271Z,1.50
2017-06-14T12:37:07.619Z,1.50
2017-06-14T12:39:33.941Z,1.10
2017-06-14T12:42:00.292Z,1.93
2017-06-14T12:44:26.634Z,2.13
2017-06-14T12:46:52.967Z,1.93
2017-06-14T12:49:19.335Z,1.30
2017-06-14T12:51:45.725Z,1.07
2017-06-14T12:54:12.085Z,1.57
2017-06-14T12:56:38.441Z,1.30
2017-06-14T12:59:04.765Z,1.70
2017-06-14T13:01:31.154Z,1.70
2017-06-14T13:03:57.536Z,2.10
2017-06-14T13:06:23.888Z,1.97
2017-06-14T13:08:50.220Z,2.17
2017-06-14T13:11:16.593Z,1.73
2017-06-14T13:13:42.935Z,1.57
2017-06-14T13:16:09.268Z,1.30
2017-06-14T13:18:35.632Z,1.87
2017-06-14T13:21:01.950Z,1.70
2017-06-14T13:23:28.300Z,2.40
2017-06-14T13:25:54.709Z,1.47
2017-06-14T13:28:21.089Z,1.80
2017-06-14T13:30:47.453Z,1.67
2017-06-14T13:33:13.810Z,1.63
2017-06-14T13:35:40.142Z,1.60
2017-06-14T13:38:06.493Z,1.80
2017-06-14T13:40:32.841Z,1.40
2017-06-14T13:42:59.237Z,1.90
2017-06-14T13:45:25.607Z,2.13
2017-06-14T13:47:51.938Z,1.90
2017-06-14T13:50:18.289Z,1.50
2017-06-14T13:52:44.652Z,1.90
2017-06-14T13:55:11.014Z,1.80
2017-06-14T13:57:37.370Z,1.33
2017-06-14T14:00:03.754Z,1.57
2017-06-14T14:02:30.088Z,1.80
2017-06-14T14:04:56.497Z,2.10
2017-06-14T14:07:22.884Z,1.67
2017-06-14T14:09:49.364Z,1.83
2017-06-14T14:12:16.173Z,1.87
2017-06-14T14:14:42.562Z,1.77
2017-06-14T14:17:09.040Z,1.67
2017-06-14T14:19:35.429Z,1.97
2017-06-14T14:22:01.795Z,1.80
2017-06-14T14:24:28.135Z,1.80
2017-06-14T14:26:54.485Z,1.40
2017-06-14T14:29:20.854Z,1.57
2017-06-14T14:31:47.190Z,1.37
2017-06-14T14:34:13.526Z,1.70
2017-06-14T14:36:39.873Z,1.87
2017-06-14T14:39:06.226Z,1.50
2017-06-14T14:41:32.589Z,1.60
2017-06-14T14:43:59.127Z,2.10
2017-06-14T14:46:25.602Z,1.67
2017-06-14T14:48:51.944Z,1.37
2017-06-14T14:51:18.270Z,1.80
2017-06-14T14:53:44.605Z,1.60
2017-06-14T14:56:10.954Z,1.77
2017-06-14T14:58:37.366Z,2.00
2017-06-14T15:01:03.742Z,2.00
2017-06-14T15:03:30.097Z,1.50
2017-06-14T15:05:56.500Z,1.30
2017-06-14T15:08:22.899Z,1.70
2017-06-14T15:10:49.275Z,1.57
2017-06-14T15:13:16.270Z,1.50
2017-06-14T15:15:42.754Z,2.00
2017-06-14T15:18:09.114Z,1.63
2017-06-14T15:20:35.486Z,1.70
2017-06-14T15:23:01.860Z,2.10
2017-06-14T15:25:28.214Z,1.90
2017-06-14T15:27:54.578Z,2.43
2017-06-14T15:30:20.935Z,1.60
2017-06-14T15:32:47.272Z,1.63
2017-06-14T15:35:13.685Z,1.67
2017-06-14T15:37:40.601Z,2.00
2017-06-14T15:40:06.943Z,1.50
2017-06-14T15:42:33.873Z,1.40
2017-06-14T15:45:00.558Z,1.67
2017-06-14T15:47:27.507Z,1.27
2017-06-14T15:49:53.920Z,1.67
2017-06-14T15:52:20.716Z,2.03
2017-06-14T15:54:47.090Z,1.80
2017-06-14T15:57:13.451Z,1.50
2017-06-14T15:59:39.804Z,1.83
2017-06-14T16:02:06.469Z,1.50
2017-06-14T16:04:33.276Z,1.83
2017-06-14T16:06:59.749Z,1.43
2017-06-14T16:09:26.082Z,1.40
2017-06-14T16:11:52.458Z,1.83
2017-06-14T16:14:18.848Z,1.50
2017-06-14T16:16:45.185Z,1.60
2017-06-14T16:19:12.047Z,1.80
2017-06-14T16:21:38.765Z,1.33
2017-06-14T16:24:06.523Z,1.73
2017-06-14T16:26:33.037Z,1.73
2017-06-14T16:28:59.462Z,1.60
2017-06-14T16:31:25.843Z,1.50
2017-06-14T16:33:52.213Z,1.80
2017-06-14T16:36:18.641Z,1.57
2017-06-14T16:38:45.084Z,1.77
2017-06-14T16:41:11.436Z,1.50
2017-06-14T16:43:37.812Z,1.47
2017-06-14T16:46:04.606Z,1.47
2017-06-14T16:48:30.933Z,1.70
2017-06-14T16:50:57.278Z,1.73
2017-06-14T16:53:23.651Z,2.00
2017-06-14T16:55:50.009Z,2.30
2017-06-14T16:58:16.369Z,1.93
2017-06-14T17:00:42.702Z,1.80
2017-06-14T17:03:09.054Z,1.70
2017-06-14T17:05:35.396Z,1.90
2017-06-14T17:08:02.045Z,1.83
2017-06-14T17:10:28.389Z,1.93
2017-06-14T17:12:54.726Z,2.20
2017-06-14T17:15:21.111Z,2.20
2017-06-14T17:17:47.429Z,1.73
2017-06-14T17:20:13.758Z,2.23
2017-06-14T17:22:40.092Z,1.90
2017-06-14T17:25:06.434Z,1.40
2017-06-14T17:27:32.775Z,1.80
2017-06-14T17:29:59.087Z,1.97
2017-06-14T17:32:25.425Z,1.60
2017-06-14T17:34:51.833Z,2.13
2017-06-14T17:37:18.172Z,2.10
2017-06-14T17:39:44.496Z,2.37
2017-06-14T17:42:10.832Z,1.80
2017-06-14T17:44:37.200Z,1.50
2017-06-14T17:47:03.511Z,1.40
2017-06-14T17:49:29.913Z,1.70
2017-06-14T17:51:56.269Z,1.67
2017-06-14T17:54:22.614Z,2.07
2017-06-14T17:56:48.973Z,1.77
2017-06-14T17:59:15.307Z,2.00
2017-06-14T18:01:41.635Z,1.93
2017-06-14T18:04:08.006Z,2.20
2017-06-14T18:06:34.370Z,2.00
2017-06-14T18:09:00.783Z,1.90
2017-06-14T18:11:27.149Z,1.57
2017-06-14T18:13:54.165Z,1.77
2017-06-14T18:16:20.530Z,1.60
2017-06-14T18:18:47.193Z,1.80
2017-06-14T18:21:13.819Z,1.80
2017-06-14T18:23:40.168Z,2.07
2017-06-14T18:26:06.589Z,2.20
2017-06-14T18:28:33.008Z,1.80
2017-06-14T18:30:59.382Z,2.40
2017-06-14T18:33:25.700Z,5.37
2017-06-14T18:35:52.084Z,4.70
2017-06-14T18:38:18.387Z,3.70
2017-06-14T18:40:44.715Z,3.47
2017-06-14T18:43:11.070Z,3.67
2017-06-14T18:45:37.377Z,3.07
2017-06-14T18:48:03.726Z,2.23
2017-06-14T18:50:30.123Z,1.93
2017-06-14T18:52:56.453Z,2.07
2017-06-14T18:55:22.842Z,2.37
2017-06-14T18:57:49.236Z,1.90
2017-06-14T19:00:15.609Z,2.73
2017-06-14T19:02:42.048Z,2.20
2017-06-14T19:05:08.413Z,1.90
2017-06-14T19:07:34.754Z,2.07
2017-06-14T19:10:01.149Z,2.10
2017-06-14T19:12:27.517Z,2.37
2017-06-14T19:14:53.920Z,2.50
2017-06-14T19:17:20.297Z,2.40
2017-06-14T19:19:46.713Z,2.40
2017-06-14T19:22:13.290Z,2.37
2017-06-14T19:24:39.623Z,2.40
2017-06-14T19:27:05.986Z,2.60
2017-06-14T19:29:32.427Z,3.53
2017-06-14T19:31:58.828Z,2.67
2017-06-14T19:34:25.194Z,2.67
2017-06-14T19:36:51.537Z,2.80
2017-06-14T19:39:17.924Z,2.60
2017-06-14T19:41:44.395Z,2.67
2017-06-14T19:44:10.755Z,2.70
2017-06-14T19:46:37.159Z,2.40
2017-06-14T19:49:03.525Z,3.00
2017-06-14T19:51:29.927Z,3.00
2017-06-14T19:53:56.279Z,2.67
2017-06-14T19:56:22.628Z,2.73
2017-06-14T19:58:49.896Z,2.80
2017-06-14T20:01:16.240Z,2.97
2017-06-14T20:03:42.585Z,2.47
2017-06-14T20:06:09.282Z,2.60
2017-06-14T20:08:35.674Z,2.77
2017-06-14T20:11:02.074Z,3.60
2017-06-14T20:13:28.492Z,3.07
2017-06-14T20:15:54.874Z,2.80
2017-06-14T20:20:52.671Z,3.50
2017-06-14T20:23:19.125Z,3.43
2017-06-14T20:25:45.496Z,3.80
2017-06-14T20:28:11.878Z,3.40
2017-06-14T20:30:38.291Z,4.30
2017-06-14T20:33:04.723Z,3.80
2017-06-14T20:35:31.093Z,3.80
2017-06-14T20:37:57.481Z,3.50
2017-06-14T20:40:23.843Z,5.33
2017-06-14T20:42:50.175Z,6.97
2017-06-14T20:45:16.554Z,11.30
2017-06-14T20:47:42.879Z,20.33
2017-06-14T20:50:09.217Z,18.60
2017-06-14T20:52:35.560Z,14.30
2017-06-14T20:55:01.929Z,12.60
2017-06-14T20:57:28.265Z,12.80
2017-06-14T20:59:54.593Z,13.30
2017-06-14T21:02:20.929Z,9.30
2017-06-14T21:04:59.436Z,5.77
2017-06-14T21:07:25.799Z,4.80
2017-06-14T21:09:52.166Z,4.30
2017-06-14T21:12:18.581Z,4.00
2017-06-14T21:14:44.943Z,3.70
2017-06-14T21:17:11.302Z,4.17
2017-06-14T21:19:37.647Z,4.13
2017-06-14T21:22:04.033Z,10.30
2017-06-14T21:24:30.540Z,10.90
2017-06-14T21:26:56.901Z,11.50
2017-06-14T21:29:23.253Z,15.30
2017-06-14T21:31:49.583Z,17.80
2017-06-14T21:34:15.957Z,13.53
2017-06-14T21:36:42.841Z,13.70
2017-06-14T21:39:09.255Z,14.33
2017-06-14T21:41:35.618Z,11.83
2017-06-14T21:44:04.068Z,13.70
2017-06-14T21:46:30.654Z,10.60
2017-06-14T21:48:57.013Z,7.27
2017-06-14T21:51:23.382Z,6.57
2017-06-14T21:53:49.760Z,7.83
2017-06-14T21:56:16.126Z,7.40
2017-06-14T21:58:42.468Z,8.90
2017-06-14T22:01:08.822Z,9.47
2017-06-14T22:03:35.126Z,9.67
2017-06-14T22:06:02.154Z,8.33
2017-06-14T22:08:28.490Z,8.07
2017-06-14T22:10:54.793Z,8.27
2017-06-14T22:13:21.507Z,5.60
2017-06-14T22:15:47.920Z,6.03
2017-06-14T22:18:14.255Z,6.07
2017-06-14T22:20:40.622Z,6.07
2017-06-14T22:23:06.961Z,5.30
2017-06-14T22:25:33.301Z,4.70
2017-06-14T22:27:59.634Z,5.80
2017-06-14T22:30:26.363Z,4.90
2017-06-14T22:32:53.154Z,6.40
2017-06-14T22:35:19.543Z,6.50
2017-06-14T22:37:45.914Z,19.60
2017-06-14T22:40:12.725Z,5.27
2017-06-14T22:42:39.090Z,4.60
2017-06-14T22:45:05.441Z,8.13
2017-06-14T22:47:31.817Z,6.60
2017-06-14T22:49:58.236Z,7.10
2017-06-14T22:52:24.962Z,6.70
2017-06-14T22:54:51.295Z,5.70
2017-06-14T22:57:18.086Z,7.40
2017-06-14T22:59:44.432Z,6.00
2017-06-14T23:02:11.045Z,8.60
2017-06-14T23:04:37.464Z,7.40
2017-06-14T23:07:03.795Z,6.10
2017-06-14T23:09:30.126Z,6.10
2017-06-14T23:11:56.520Z,5.43
2017-06-14T23:14:22.859Z,5.80
2017-06-14T23:16:49.197Z,8.10
2017-06-14T23:19:16.098Z,8.00
2017-06-14T23:21:42.819Z,8.30
2017-06-14T23:24:09.552Z,6.13
2017-06-14T23:26:36.416Z,8.20
2017-06-14T23:29:03.330Z,5.60
2017-06-14T23:31:29.991Z,5.90
2017-06-14T23:33:56.701Z,5.73
2017-06-14T23:36:23.425Z,11.93
2017-06-14T23:38:50.337Z,11.37
2017-06-14T23:41:17.168Z,11.83
2017-06-14T23:43:43.681Z,10.03
2017-06-14T23:46:10.023Z,9.50
2017-06-14T23:48:36.365Z,7.50
2017-06-14T23:51:02.743Z,6.77
2017-06-14T23:53:29.084Z,7.60
2017-06-14T23:55:55.404Z,9.90
2017-06-14T23:58:21.855Z,9.90
